Walberton, United Kingdom
Current Conditions -  °F | °C
As of 9:20 AM on Monday 22 Dec 2014 (Local Time) from EGKA Reporting Station
Scattered Clouds Scattered Clouds  
Wind Chill: 54°   Ceiling: Unl
Heat Index: 54°   Visibility: 5mi
Dew Point: 50°   Wind: 23mph
Humidity: 88%   Direction: 250°WSW
Pressure: 30.12"   Gusts: 35mph
Location:  50.84°N, 0.62°W
Report Text: EGKA 220920Z 25020G30KT 8000 SCT013 12/10 Q1020
Loading
Personal Weather Stations






























Interactive Weather Map New forecast layout! Learn more

10-Day Weather Forecast

Advertisements
Track Severe Weather on mobile